createdAt,value
2023-05-10T00:00:46.224Z,4.43
2023-05-10T00:03:13.473Z,3.80
2023-05-10T00:05:40.611Z,5.28
2023-05-10T00:08:08.246Z,4.78
2023-05-10T00:10:35.339Z,4.57
2023-05-10T00:13:02.799Z,5.82
2023-05-10T00:15:31.651Z,3.58
2023-05-10T00:17:59.556Z,2.88
2023-05-10T00:20:27.011Z,5.05
2023-05-10T00:22:53.947Z,4.07
2023-05-10T00:25:22.723Z,5.80
2023-05-10T00:27:50.943Z,4.70
2023-05-10T00:30:18.140Z,5.00
2023-05-10T00:32:45.782Z,3.72
2023-05-10T00:35:12.871Z,5.05
2023-05-10T00:37:40.243Z,4.20
2023-05-10T00:40:08.180Z,3.47
2023-05-10T00:42:35.236Z,4.65
2023-05-10T00:45:02.494Z,5.30
2023-05-10T00:47:30.899Z,5.25
2023-05-10T00:49:58.471Z,5.75
2023-05-10T00:52:27.115Z,3.70
2023-05-10T00:54:54.635Z,3.78
2023-05-10T00:57:22.376Z,4.30
2023-05-10T00:59:49.871Z,4.93
2023-05-10T01:02:16.952Z,4.47
2023-05-10T01:04:44.562Z,4.90
2023-05-10T01:07:11.706Z,3.28
2023-05-10T01:09:38.883Z,5.40
2023-05-10T01:12:08.030Z,7.03
2023-05-10T01:14:37.419Z,4.88
2023-05-10T01:17:07.375Z,4.82
2023-05-10T01:19:36.160Z,5.40
2023-05-10T01:22:15.070Z,5.40
2023-05-10T01:24:48.133Z,6.30
2023-05-10T01:27:37.103Z,4.97
2023-05-10T01:30:27.034Z,5.22
2023-05-10T01:33:19.294Z,4.57
2023-05-10T01:35:54.625Z,4.32
2023-05-10T01:38:48.057Z,4.50
2023-05-10T01:41:26.310Z,5.05
2023-05-10T01:44:23.271Z,4.55
2023-05-10T01:47:07.443Z,4.63
2023-05-10T01:49:41.291Z,4.43
2023-05-10T01:52:13.455Z,4.18
2023-05-10T01:54:46.380Z,4.03
2023-05-10T01:57:17.995Z,3.78
2023-05-10T01:59:51.276Z,4.93
2023-05-10T02:02:22.021Z,4.55
2023-05-10T02:04:51.972Z,4.50
2023-05-10T02:07:20.435Z,3.47
2023-05-10T02:09:52.147Z,3.58
2023-05-10T02:12:22.700Z,3.97
2023-05-10T02:14:52.524Z,5.07
2023-05-10T02:17:20.181Z,3.40
2023-05-10T02:19:49.993Z,3.47
2023-05-10T02:22:18.932Z,4.03
2023-05-10T02:24:48.410Z,4.63
2023-05-10T02:27:17.069Z,4.55
2023-05-10T02:29:45.886Z,5.53
2023-05-10T02:32:14.279Z,7.95
2023-05-10T02:34:42.449Z,4.45
2023-05-10T02:37:11.334Z,7.68
2023-05-10T02:39:41.711Z,6.30
2023-05-10T02:42:09.799Z,5.47
2023-05-10T02:44:38.552Z,5.47
2023-05-10T02:47:05.996Z,5.20
2023-05-10T02:49:33.070Z,3.90
2023-05-10T02:52:06.428Z,6.35
2023-05-10T02:54:45.058Z,5.07
2023-05-10T02:57:20.585Z,5.10
2023-05-10T02:59:47.694Z,5.50
2023-05-10T03:02:15.515Z,6.38
2023-05-10T03:04:42.778Z,5.13
2023-05-10T03:07:10.318Z,4.68
2023-05-10T03:09:37.607Z,4.28
2023-05-10T03:12:20.547Z,5.15
2023-05-10T03:17:37.860Z,6.10
2023-05-10T03:20:11.149Z,5.03
2023-05-10T03:22:42.199Z,3.90
2023-05-10T03:25:12.197Z,3.42
2023-05-10T03:27:43.336Z,4.88
2023-05-10T03:30:13.225Z,5.72
2023-05-10T03:32:41.285Z,4.97
2023-05-10T03:35:14.369Z,5.70
2023-05-10T03:37:42.458Z,7.57
2023-05-10T03:40:11.373Z,6.32
2023-05-10T03:42:41.371Z,5.15
2023-05-10T03:45:10.044Z,5.90
2023-05-10T03:47:37.280Z,4.55
2023-05-10T03:50:05.495Z,4.13
2023-05-10T03:52:33.562Z,5.72
2023-05-10T03:55:01.257Z,3.78
2023-05-10T03:57:28.680Z,5.50
2023-05-10T03:59:56.109Z,4.40
2023-05-10T04:02:24.214Z,5.05
2023-05-10T04:04:52.172Z,3.95
2023-05-10T04:07:19.504Z,4.57
2023-05-10T04:09:46.850Z,4.32
2023-05-10T04:12:14.212Z,3.42
2023-05-10T04:14:42.363Z,8.07
2023-05-10T04:17:09.889Z,5.90
2023-05-10T04:19:36.886Z,6.57
2023-05-10T04:22:04.381Z,4.40
2023-05-10T04:24:31.277Z,4.40
2023-05-10T04:26:58.477Z,4.13
2023-05-10T04:29:25.893Z,4.00
2023-05-10T04:31:53.234Z,5.57
2023-05-10T04:34:22.243Z,4.68
2023-05-10T04:36:49.466Z,4.57
2023-05-10T04:39:16.740Z,5.25
2023-05-10T04:41:43.932Z,5.28
2023-05-10T04:44:11.120Z,6.57
2023-05-10T04:46:38.524Z,7.72
2023-05-10T04:49:05.660Z,8.48
2023-05-10T04:51:33.397Z,11.13
2023-05-10T04:54:06.547Z,4.75
2023-05-10T04:56:34.634Z,3.00
2023-05-10T04:59:02.287Z,2.80
2023-05-10T05:01:29.467Z,2.33
2023-05-10T05:03:57.403Z,3.17
2023-05-10T05:06:25.992Z,4.85
2023-05-10T05:08:53.161Z,5.47
2023-05-10T05:11:20.596Z,6.70
2023-05-10T05:13:48.079Z,14.73
2023-05-10T05:16:15.604Z,26.88
2023-05-10T05:18:42.721Z,13.52
2023-05-10T05:21:20.890Z,5.97
2023-05-10T05:23:48.306Z,3.58
2023-05-10T05:26:16.143Z,3.00
2023-05-10T05:28:43.802Z,3.00
2023-05-10T05:31:11.237Z,4.35
2023-05-10T05:33:39.610Z,4.32
2023-05-10T05:36:07.558Z,20.85
2023-05-10T05:38:34.838Z,3.35
2023-05-10T05:41:02.047Z,3.30
2023-05-10T05:43:29.306Z,3.70
2023-05-10T05:46:15.742Z,5.10
2023-05-10T05:48:43.102Z,6.72
2023-05-10T05:51:10.708Z,1.95
2023-05-10T05:53:37.806Z,4.38
2023-05-10T05:56:05.128Z,3.20
2023-05-10T05:58:32.644Z,2.80
2023-05-10T06:00:59.908Z,3.40
2023-05-10T06:03:27.197Z,3.00
2023-05-10T06:05:54.258Z,3.03
2023-05-10T06:08:21.799Z,2.20
2023-05-10T06:10:49.133Z,3.22
2023-05-10T06:13:16.901Z,2.83
2023-05-10T06:15:44.213Z,3.38
2023-05-10T06:18:11.706Z,3.53
2023-05-10T06:20:38.943Z,3.28
2023-05-10T06:23:06.374Z,3.28
2023-05-10T06:25:33.963Z,2.65
2023-05-10T06:28:01.934Z,2.20
2023-05-10T06:30:30.358Z,3.17
2023-05-10T06:32:58.333Z,2.17
2023-05-10T06:35:25.805Z,3.22
2023-05-10T06:37:53.524Z,3.53
2023-05-10T06:40:21.121Z,2.65
2023-05-10T06:42:49.208Z,1.85
2023-05-10T06:45:17.180Z,6.10
2023-05-10T06:47:45.569Z,2.80
2023-05-10T06:50:13.884Z,2.22
2023-05-10T06:52:44.046Z,2.53
2023-05-10T06:55:13.378Z,2.38
2023-05-10T06:57:42.038Z,5.68
2023-05-10T07:00:11.164Z,2.38
2023-05-10T07:02:39.486Z,3.83
2023-05-10T07:05:07.731Z,4.13
2023-05-10T07:07:35.255Z,5.78
2023-05-10T07:10:04.251Z,3.17
2023-05-10T07:12:32.961Z,2.90
2023-05-10T07:15:02.501Z,3.28
2023-05-10T07:17:30.213Z,3.20
2023-05-10T07:19:57.406Z,4.78
2023-05-10T07:22:25.143Z,1.83
2023-05-10T07:24:53.873Z,2.92
2023-05-10T07:27:21.608Z,2.60
2023-05-10T07:29:48.905Z,4.10
2023-05-10T07:32:16.344Z,6.57
2023-05-10T07:34:43.768Z,2.95
2023-05-10T07:37:11.451Z,1.73
2023-05-10T07:39:39.064Z,2.72
2023-05-10T07:42:06.840Z,3.35
2023-05-10T07:44:34.214Z,1.67
2023-05-10T07:47:04.881Z,2.35
2023-05-10T07:49:32.407Z,2.53
2023-05-10T07:51:59.913Z,2.53
2023-05-10T07:54:30.198Z,3.83
2023-05-10T07:56:57.219Z,2.85
2023-05-10T07:59:24.448Z,2.20
2023-05-10T08:01:51.808Z,7.35
2023-05-10T08:04:19.065Z,3.28
2023-05-10T08:06:47.850Z,3.28
2023-05-10T08:09:15.071Z,2.30
2023-05-10T08:11:43.288Z,3.25
2023-05-10T08:14:10.970Z,4.40
2023-05-10T08:16:38.357Z,2.00
2023-05-10T08:19:06.770Z,3.65
2023-05-10T08:21:34.428Z,4.60
2023-05-10T08:24:01.634Z,2.97
2023-05-10T08:26:29.265Z,3.85
2023-05-10T08:28:56.644Z,5.38
2023-05-10T08:31:26.128Z,6.20
2023-05-10T08:33:55.447Z,2.58
2023-05-10T08:36:26.126Z,2.72
2023-05-10T08:38:55.765Z,2.85
2023-05-10T08:41:29.012Z,14.48
2023-05-10T08:43:57.069Z,3.28
2023-05-10T08:46:24.887Z,4.32
2023-05-10T08:48:53.709Z,2.80
2023-05-10T08:51:28.499Z,2.80
2023-05-10T08:53:59.253Z,3.40
2023-05-10T08:56:28.595Z,5.72
2023-05-10T08:58:57.914Z,3.45
2023-05-10T09:01:27.288Z,3.03
2023-05-10T09:03:55.215Z,2.28
2023-05-10T09:06:23.075Z,3.00
2023-05-10T09:08:51.463Z,2.70
2023-05-10T09:11:19.902Z,3.05
2023-05-10T09:13:50.273Z,2.88
2023-05-10T09:16:21.966Z,3.90
2023-05-10T09:18:51.098Z,6.32
2023-05-10T09:21:20.896Z,2.63
2023-05-10T09:23:51.470Z,4.07
2023-05-10T09:26:23.478Z,2.17
2023-05-10T09:28:57.216Z,3.57
2023-05-10T09:31:27.244Z,3.97
2023-05-10T09:33:56.537Z,3.17
2023-05-10T09:36:25.576Z,3.80
2023-05-10T09:38:55.565Z,3.00
2023-05-10T09:41:25.078Z,2.22
2023-05-10T09:43:57.810Z,4.38
2023-05-10T09:48:54.018Z,6.57
2023-05-10T09:51:26.083Z,3.10
2023-05-10T09:54:17.972Z,2.83
2023-05-10T09:56:45.371Z,2.92
2023-05-10T09:59:14.992Z,3.65
2023-05-10T10:01:43.143Z,3.05
2023-05-10T10:04:11.474Z,2.60
2023-05-10T10:06:42.335Z,3.50
2023-05-10T10:09:14.128Z,3.40
2023-05-10T10:11:44.004Z,3.83
2023-05-10T10:14:14.766Z,4.25
2023-05-10T10:16:55.542Z,2.90
2023-05-10T10:19:32.696Z,2.95
2023-05-10T10:22:00.465Z,4.60
2023-05-10T10:24:28.996Z,3.10
2023-05-10T10:27:05.549Z,2.17
2023-05-10T10:30:11.146Z,3.78
2023-05-10T10:32:58.987Z,8.77
2023-05-10T10:35:26.757Z,3.63
2023-05-10T10:37:56.997Z,2.35
2023-05-10T10:43:47.344Z,5.88
2023-05-10T10:46:19.041Z,4.07
2023-05-10T10:48:55.334Z,3.13
2023-05-10T10:51:26.383Z,2.05
2023-05-10T10:53:55.148Z,2.75
2023-05-10T10:56:27.054Z,3.25
2023-05-10T10:58:54.970Z,3.15
2023-05-10T11:01:26.077Z,2.30
2023-05-10T11:04:02.433Z,4.03
2023-05-10T11:06:34.655Z,5.05
2023-05-10T11:09:10.669Z,3.50
2023-05-10T11:11:49.361Z,3.30
2023-05-10T11:14:22.458Z,2.20
2023-05-10T11:16:57.671Z,3.45
2023-05-10T11:19:29.193Z,2.05
2023-05-10T11:22:04.862Z,3.83
2023-05-10T11:24:32.080Z,2.72
2023-05-10T11:26:59.660Z,3.60
2023-05-10T11:29:29.113Z,3.17
2023-05-10T11:32:00.921Z,2.53
2023-05-10T11:34:34.886Z,2.67
2023-05-10T11:37:04.403Z,2.28
2023-05-10T11:39:37.078Z,3.35
2023-05-10T11:42:04.858Z,1.98
2023-05-10T11:44:33.066Z,3.63
2023-05-10T11:47:01.814Z,2.92
2023-05-10T11:49:31.882Z,2.42
2023-05-10T11:52:10.227Z,1.52
2023-05-10T11:54:42.377Z,2.20
2023-05-10T11:57:10.021Z,3.67
2023-05-10T11:59:43.195Z,1.60
2023-05-10T12:02:12.544Z,3.38
2023-05-10T12:04:41.692Z,2.70
2023-05-10T12:07:13.943Z,3.85
2023-05-10T12:10:06.718Z,2.40
2023-05-10T12:12:45.194Z,3.05
2023-05-10T12:15:23.512Z,2.95
2023-05-10T12:17:51.887Z,1.80
2023-05-10T12:20:26.443Z,2.78
2023-05-10T12:23:06.153Z,1.98
2023-05-10T12:25:35.743Z,2.25
2023-05-10T12:28:10.749Z,53.20
2023-05-10T12:30:38.801Z,3.47
2023-05-10T12:33:11.876Z,2.42
2023-05-10T12:36:02.859Z,3.67
2023-05-10T12:38:47.409Z,3.28
2023-05-10T12:41:17.271Z,3.75
2023-05-10T12:44:10.950Z,2.00
2023-05-10T12:46:38.368Z,2.20
2023-05-10T12:49:09.330Z,4.97
2023-05-10T12:51:36.566Z,2.00
2023-05-10T12:54:04.649Z,2.47
2023-05-10T12:56:31.691Z,1.98
2023-05-10T12:59:01.209Z,3.30
2023-05-10T13:01:33.883Z,3.60
2023-05-10T13:04:01.874Z,2.65
2023-05-10T13:06:29.641Z,1.73
2023-05-10T13:08:56.677Z,2.17
2023-05-10T13:11:23.612Z,3.70
2023-05-10T13:13:50.688Z,5.97
2023-05-10T13:16:17.751Z,2.97
2023-05-10T13:18:44.653Z,3.65
2023-05-10T13:21:12.408Z,3.15
2023-05-10T13:23:39.601Z,5.47
2023-05-10T13:26:06.504Z,5.40
2023-05-10T13:28:33.411Z,2.15
2023-05-10T13:31:01.256Z,4.00
2023-05-10T13:33:28.239Z,3.95
2023-05-10T13:35:55.830Z,4.38
2023-05-10T13:38:22.921Z,5.60
2023-05-10T13:40:53.592Z,1.38
2023-05-10T13:43:21.148Z,2.58
2023-05-10T13:45:50.267Z,2.67
2023-05-10T13:48:17.238Z,1.73
2023-05-10T13:50:44.600Z,1.92
2023-05-10T13:53:11.654Z,4.68
2023-05-10T13:55:39.411Z,4.22
2023-05-10T13:58:09.194Z,2.83
2023-05-10T14:00:36.638Z,2.20
2023-05-10T14:03:07.853Z,3.55
2023-05-10T14:05:35.696Z,10.23
2023-05-10T14:08:06.309Z,2.42
2023-05-10T14:10:33.425Z,3.90
2023-05-10T14:13:00.546Z,2.10
2023-05-10T14:15:27.521Z,2.05
2023-05-10T14:17:54.507Z,2.42
2023-05-10T14:20:21.557Z,3.30
2023-05-10T14:22:48.504Z,3.45
2023-05-10T14:25:16.090Z,2.03
2023-05-10T14:27:43.982Z,3.42
2023-05-10T14:30:12.379Z,3.88
2023-05-10T14:32:39.473Z,2.80
2023-05-10T14:35:07.390Z,1.98
2023-05-10T14:37:34.451Z,3.42
2023-05-10T14:40:01.553Z,3.85
2023-05-10T14:42:29.559Z,3.42
2023-05-10T14:44:56.390Z,3.25
2023-05-10T14:47:23.186Z,3.55
2023-05-10T14:49:50.001Z,4.25
2023-05-10T14:52:17.046Z,3.30
2023-05-10T14:54:46.967Z,2.72
2023-05-10T14:57:14.223Z,3.67
2023-05-10T14:59:41.363Z,3.78
2023-05-10T15:02:19.400Z,4.65
2023-05-10T15:04:48.370Z,4.55
2023-05-10T15:07:17.444Z,1.73
2023-05-10T15:09:47.571Z,2.50
2023-05-10T15:12:14.554Z,2.78
2023-05-10T15:14:41.478Z,5.45
2023-05-10T15:17:08.876Z,2.15
2023-05-10T15:19:36.022Z,2.70
2023-05-10T15:22:06.307Z,4.05
2023-05-10T15:24:33.505Z,2.83
2023-05-10T15:27:01.859Z,2.70
2023-05-10T15:29:28.884Z,5.13
2023-05-10T15:31:58.275Z,3.30
2023-05-10T15:34:29.720Z,3.15
2023-05-10T15:36:57.803Z,2.67
2023-05-10T15:39:27.709Z,3.22
2023-05-10T15:42:00.363Z,1.90
2023-05-10T15:44:32.552Z,4.65
2023-05-10T15:47:01.527Z,5.50
2023-05-10T15:49:34.663Z,9.38
2023-05-10T15:52:04.451Z,4.85
2023-05-10T15:54:35.144Z,3.10
2023-05-10T15:57:02.422Z,5.80
2023-05-10T15:59:31.783Z,5.22
2023-05-10T16:01:59.450Z,7.05
2023-05-10T16:04:31.767Z,2.50
2023-05-10T16:07:01.789Z,4.70
2023-05-10T16:09:32.596Z,8.02
2023-05-10T16:12:01.912Z,4.07
2023-05-10T16:14:35.193Z,2.42
2023-05-10T16:17:15.493Z,3.65
2023-05-10T16:19:47.515Z,5.45
2023-05-10T16:22:28.382Z,5.55
2023-05-10T16:24:58.193Z,11.93
2023-05-10T16:27:32.878Z,2.17
2023-05-10T16:33:02.995Z,3.28
2023-05-10T16:35:35.902Z,3.08
2023-05-10T16:38:07.014Z,3.85
2023-05-10T16:40:37.519Z,4.57
2023-05-10T16:43:11.549Z,7.07
2023-05-10T16:45:40.598Z,3.78
2023-05-10T16:48:47.812Z,2.67
2023-05-10T16:51:27.275Z,2.22
2023-05-10T16:56:41.277Z,6.47
2023-05-10T16:59:09.286Z,7.55
2023-05-10T17:01:42.766Z,6.53
2023-05-10T17:04:10.594Z,8.20
2023-05-10T17:06:42.292Z,17.60
2023-05-10T17:09:09.962Z,64.32
2023-05-10T17:11:44.007Z,14.13
2023-05-10T17:14:17.253Z,9.43
2023-05-10T17:16:45.109Z,3.45
2023-05-10T17:19:19.536Z,7.43
2023-05-10T17:21:47.196Z,4.78
2023-05-10T17:24:15.854Z,4.70
2023-05-10T17:26:49.918Z,10.93
2023-05-10T17:29:18.177Z,10.88
2023-05-10T17:31:47.403Z,10.57
2023-05-10T17:34:18.372Z,10.60
2023-05-10T17:36:52.473Z,12.07
2023-05-10T17:39:19.973Z,10.68
2023-05-10T17:41:50.280Z,8.52
2023-05-10T17:44:18.538Z,12.23
2023-05-10T17:46:48.617Z,13.10
2023-05-10T17:49:17.215Z,13.27
2023-05-10T17:51:47.292Z,11.70
2023-05-10T17:54:20.263Z,9.82
2023-05-10T17:56:51.693Z,6.07
2023-05-10T17:59:22.202Z,5.97
2023-05-10T18:01:51.045Z,7.18
2023-05-10T18:04:21.112Z,7.25
2023-05-10T18:06:49.597Z,7.35
2023-05-10T18:09:18.165Z,7.88
2023-05-10T18:11:47.963Z,6.35
2023-05-10T18:14:32.021Z,6.65
2023-05-10T18:17:06.394Z,4.03
2023-05-10T18:19:37.319Z,10.68
2023-05-10T18:22:08.100Z,39.97
2023-05-10T18:27:10.187Z,23.80
2023-05-10T18:29:45.733Z,19.65
2023-05-10T18:32:26.408Z,28.15
2023-05-10T18:35:27.519Z,20.45
2023-05-10T18:38:00.831Z,17.80
2023-05-10T18:40:31.121Z,16.15
2023-05-10T18:42:58.660Z,82.55
2023-05-10T18:45:28.384Z,73.03
2023-05-10T18:47:56.623Z,80.35
2023-05-10T18:50:29.708Z,107.00
2023-05-10T18:52:57.899Z,88.88
2023-05-10T18:55:28.700Z,68.65
2023-05-10T18:57:56.497Z,41.80
2023-05-10T19:01:16.454Z,33.08
2023-05-10T19:07:05.183Z,17.27
2023-05-10T19:09:38.516Z,22.73
2023-05-10T19:12:16.778Z,65.63
2023-05-10T19:14:43.901Z,43.42
2023-05-10T19:17:18.976Z,23.55
2023-05-10T19:19:54.092Z,26.92
2023-05-10T19:22:36.046Z,23.40
2023-05-10T19:25:14.815Z,21.42
2023-05-10T19:27:43.339Z,40.25
2023-05-10T19:30:14.629Z,27.77
2023-05-10T19:32:44.427Z,35.78
2023-05-10T19:35:13.754Z,16.27
2023-05-10T19:37:46.100Z,14.00
2023-05-10T19:40:27.328Z,14.63
2023-05-10T19:43:28.070Z,13.02
2023-05-10T19:46:19.447Z,14.98
2023-05-10T19:51:37.269Z,11.07
2023-05-10T19:54:24.346Z,8.40
2023-05-10T19:56:53.868Z,8.93
2023-05-10T19:59:23.632Z,6.82
2023-05-10T20:02:01.557Z,6.38
2023-05-10T20:04:29.428Z,7.95
2023-05-10T20:06:56.652Z,9.45
2023-05-10T20:09:24.453Z,9.88
2023-05-10T20:11:53.404Z,8.60
2023-05-10T20:14:24.460Z,7.45
2023-05-10T20:16:58.089Z,8.40
2023-05-10T20:19:29.173Z,9.77
2023-05-10T20:21:58.898Z,8.73
2023-05-10T20:24:32.386Z,10.00
2023-05-10T20:27:03.527Z,7.78
2023-05-10T20:29:34.478Z,10.40
2023-05-10T20:32:02.646Z,8.38
2023-05-10T20:34:31.290Z,10.57
2023-05-10T20:37:00.399Z,8.90
2023-05-10T20:39:28.214Z,7.18
2023-05-10T20:41:56.914Z,8.90
2023-05-10T20:44:24.542Z,9.55
2023-05-10T20:46:56.334Z,9.43
2023-05-10T20:49:33.243Z,14.55
2023-05-10T20:52:01.386Z,10.82
2023-05-10T20:54:39.789Z,11.77
2023-05-10T20:57:09.032Z,9.93
2023-05-10T20:59:37.923Z,9.88
2023-05-10T21:02:06.085Z,11.32
2023-05-10T21:04:41.063Z,10.70
2023-05-10T21:07:14.538Z,10.18
2023-05-10T21:09:44.492Z,11.52
2023-05-10T21:12:14.924Z,9.43
2023-05-10T21:14:48.080Z,10.90
2023-05-10T21:17:16.951Z,11.00
2023-05-10T21:19:45.954Z,11.30
2023-05-10T21:22:13.955Z,12.27
2023-05-10T21:24:41.906Z,9.40
2023-05-10T21:27:09.949Z,10.75
2023-05-10T21:29:40.833Z,8.50
2023-05-10T21:36:05.958Z,10.77
2023-05-10T21:38:53.235Z,11.95
2023-05-10T21:41:21.394Z,8.73
2023-05-10T21:43:49.461Z,11.35
2023-05-10T21:46:16.784Z,18.70
2023-05-10T21:48:44.429Z,14.15
2023-05-10T21:51:12.697Z,11.43
2023-05-10T21:53:41.177Z,13.73
2023-05-10T21:58:45.392Z,18.30
2023-05-10T22:01:18.191Z,16.67
2023-05-10T22:03:55.597Z,19.75
2023-05-10T22:06:26.128Z,15.75
2023-05-10T22:08:54.432Z,11.82
2023-05-10T22:11:26.458Z,21.70
2023-05-10T22:13:54.668Z,18.90
2023-05-10T22:16:22.406Z,15.73
2023-05-10T22:18:50.094Z,12.10
2023-05-10T22:21:20.453Z,16.27
2023-05-10T22:23:48.441Z,16.27
2023-05-10T22:26:56.532Z,17.40
2023-05-10T22:29:44.780Z,15.75
2023-05-10T22:32:27.304Z,11.88
2023-05-10T22:34:56.522Z,18.95
2023-05-10T22:37:25.462Z,16.65
2023-05-10T22:39:57.799Z,11.82
2023-05-10T22:42:25.596Z,15.30
2023-05-10T22:44:56.956Z,14.43
2023-05-10T22:47:24.433Z,13.05
2023-05-10T22:49:56.434Z,14.52
2023-05-10T22:52:24.042Z,12.88
2023-05-10T22:54:51.497Z,13.73
2023-05-10T22:57:25.452Z,12.05
2023-05-10T22:59:56.600Z,12.38
2023-05-10T23:02:24.374Z,11.55
2023-05-10T23:04:53.212Z,17.20
2023-05-10T23:07:25.141Z,12.85
2023-05-10T23:09:54.071Z,14.87
2023-05-10T23:12:21.827Z,10.20
2023-05-10T23:14:52.010Z,12.57
2023-05-10T23:17:22.976Z,8.90
2023-05-10T23:19:51.351Z,13.30
2023-05-10T23:22:19.804Z,9.20
2023-05-10T23:24:47.623Z,10.70
2023-05-10T23:27:20.105Z,10.85
2023-05-10T23:29:48.859Z,11.77
2023-05-10T23:32:25.379Z,9.55
2023-05-10T23:34:53.637Z,7.90
2023-05-10T23:37:21.893Z,12.38
2023-05-10T23:39:49.641Z,9.30
2023-05-10T23:42:17.220Z,7.13
2023-05-10T23:44:45.289Z,10.60
2023-05-10T23:47:15.352Z,13.43
2023-05-10T23:49:43.335Z,11.82
2023-05-10T23:52:13.862Z,9.55
2023-05-10T23:54:40.938Z,8.15
2023-05-10T23:57:07.931Z,14.70
2023-05-10T23:59:34.775Z,11.50
